sensor_id;sensor_type;location;lat;lon;timestamp;pressure;altitude;pressure_sealevel;temperature;humidity
74065;BME280;62421;51.412;5.432;2023-07-13T00:01:58;101297.84;;;14.57;91.03
74065;BME280;62421;51.412;5.432;2023-07-13T00:04:25;101305.84;;;14.59;91.34
74065;BME280;62421;51.412;5.432;2023-07-13T00:06:50;101308.78;;;14.56;92.14
74065;BME280;62421;51.412;5.432;2023-07-13T00:09:17;101302.59;;;14.53;91.67
74065;BME280;62421;51.412;5.432;2023-07-13T00:11:44;101301.63;;;14.54;91.81
74065;BME280;62421;51.412;5.432;2023-07-13T00:14:10;101293.66;;;14.53;91.60
74065;BME280;62421;51.412;5.432;2023-07-13T00:16:38;101300.78;;;14.54;92.31
74065;BME280;62421;51.412;5.432;2023-07-13T00:19:04;101302.59;;;14.53;92.72
74065;BME280;62421;51.412;5.432;2023-07-13T00:21:30;101310.13;;;14.50;92.04
74065;BME280;62421;51.412;5.432;2023-07-13T00:23:56;101307.63;;;14.47;92.67
74065;BME280;62421;51.412;5.432;2023-07-13T00:26:21;101299.03;;;14.42;92.56
74065;BME280;62421;51.412;5.432;2023-07-13T00:28:47;101304.06;;;14.35;93.85
74065;BME280;62421;51.412;5.432;2023-07-13T00:31:13;101302.59;;;14.31;93.23
74065;BME280;62421;51.412;5.432;2023-07-13T00:33:40;101309.09;;;14.28;94.82
74065;BME280;62421;51.412;5.432;2023-07-13T00:36:06;101304.19;;;14.22;95.21
74065;BME280;62421;51.412;5.432;2023-07-13T00:38:31;101301.59;;;14.21;94.77
74065;BME280;62421;51.412;5.432;2023-07-13T00:40:57;101302.69;;;14.18;96.44
74065;BME280;62421;51.412;5.432;2023-07-13T00:43:26;101300.09;;;14.17;95.58
74065;BME280;62421;51.412;5.432;2023-07-13T00:48:20;101316.19;;;14.18;96.30
74065;BME280;62421;51.412;5.432;2023-07-13T00:50:48;101323.19;;;14.21;95.75
74065;BME280;62421;51.412;5.432;2023-07-13T00:53:16;101314.00;;;14.23;96.28
74065;BME280;62421;51.412;5.432;2023-07-13T00:55:42;101311.81;;;14.28;95.84
74065;BME280;62421;51.412;5.432;2023-07-13T00:58:08;101307.84;;;14.32;95.98
74065;BME280;62421;51.412;5.432;2023-07-13T01:00:35;101311.69;;;14.41;95.68
74065;BME280;62421;51.412;5.432;2023-07-13T01:03:02;101313.41;;;14.42;96.47
74065;BME280;62421;51.412;5.432;2023-07-13T01:05:30;101305.41;;;14.41;96.26
74065;BME280;62421;51.412;5.432;2023-07-13T01:07:57;101308.38;;;14.38;96.13
74065;BME280;62421;51.412;5.432;2023-07-13T01:10:23;101306.03;;;14.33;96.39
74065;BME280;62421;51.412;5.432;2023-07-13T01:12:49;101320.75;;;14.29;96.81
74065;BME280;62421;51.412;5.432;2023-07-13T01:15:34;101321.25;;;14.23;95.72
74065;BME280;62421;51.412;5.432;2023-07-13T01:18:00;101325.63;;;14.12;98.22
74065;BME280;62421;51.412;5.432;2023-07-13T01:20:26;101320.69;;;14.06;99.32
74065;BME280;62421;51.412;5.432;2023-07-13T01:22:51;101321.91;;;14.02;98.69
74065;BME280;62421;51.412;5.432;2023-07-13T01:25:18;101323.88;;;14.00;99.46
74065;BME280;62421;51.412;5.432;2023-07-13T01:27:44;101320.44;;;13.98;100.00
74065;BME280;62421;51.412;5.432;2023-07-13T01:30:09;101320.66;;;13.95;100.00
74065;BME280;62421;51.412;5.432;2023-07-13T01:32:35;101310.13;;;13.92;100.00
74065;BME280;62421;51.412;5.432;2023-07-13T01:35:02;101315.63;;;13.90;100.00
74065;BME280;62421;51.412;5.432;2023-07-13T01:37:28;101312.28;;;13.87;100.00
74065;BME280;62421;51.412;5.432;2023-07-13T01:39:58;101326.03;;;13.84;100.00
74065;BME280;62421;51.412;5.432;2023-07-13T01:42:23;101318.78;;;13.84;100.00
74065;BME280;62421;51.412;5.432;2023-07-13T01:44:49;101322.69;;;13.80;100.00
74065;BME280;62421;51.412;5.432;2023-07-13T01:47:14;101324.78;;;13.77;100.00
74065;BME280;62421;51.412;5.432;2023-07-13T01:49:39;101325.66;;;13.77;100.00
74065;BME280;62421;51.412;5.432;2023-07-13T01:52:06;101324.16;;;13.73;100.00
74065;BME280;62421;51.412;5.432;2023-07-13T01:54:31;101322.56;;;13.70;100.00
74065;BME280;62421;51.412;5.432;2023-07-13T01:56:59;101331.41;;;13.72;100.00
74065;BME280;62421;51.412;5.432;2023-07-13T01:59:24;101333.22;;;13.72;100.00
74065;BME280;62421;51.412;5.432;2023-07-13T02:01:49;101334.31;;;13.69;100.00
74065;BME280;62421;51.412;5.432;2023-07-13T02:04:15;101333.81;;;13.64;100.00
74065;BME280;62421;51.412;5.432;2023-07-13T02:06:40;101337.59;;;13.62;100.00
74065;BME280;62421;51.412;5.432;2023-07-13T02:09:05;101348.59;;;13.59;100.00
74065;BME280;62421;51.412;5.432;2023-07-13T02:11:32;101349.81;;;13.55;100.00
74065;BME280;62421;51.412;5.432;2023-07-13T02:14:02;101337.41;;;13.52;100.00
74065;BME280;62421;51.412;5.432;2023-07-13T02:16:28;101344.75;;;13.50;100.00
74065;BME280;62421;51.412;5.432;2023-07-13T02:18:53;101342.16;;;13.48;100.00
74065;BME280;62421;51.412;5.432;2023-07-13T02:21:21;101344.00;;;13.48;100.00
74065;BME280;62421;51.412;5.432;2023-07-13T02:23:47;101333.13;;;13.49;100.00
74065;BME280;62421;51.412;5.432;2023-07-13T02:26:13;101345.63;;;13.50;100.00
74065;BME280;62421;51.412;5.432;2023-07-13T02:28:38;101336.78;;;13.48;100.00
74065;BME280;62421;51.412;5.432;2023-07-13T02:31:05;101341.41;;;13.46;100.00
74065;BME280;62421;51.412;5.432;2023-07-13T02:33:31;101342.41;;;13.45;100.00
74065;BME280;62421;51.412;5.432;2023-07-13T02:35:56;101338.31;;;13.40;100.00
74065;BME280;62421;51.412;5.432;2023-07-13T02:38:21;101354.63;;;13.38;100.00
74065;BME280;62421;51.412;5.432;2023-07-13T02:40:47;101335.13;;;13.35;100.00
74065;BME280;62421;51.412;5.432;2023-07-13T02:43:12;101333.63;;;13.30;100.00
74065;BME280;62421;51.412;5.432;2023-07-13T02:45:37;101342.69;;;13.29;100.00
74065;BME280;62421;51.412;5.432;2023-07-13T02:48:04;101342.97;;;13.25;100.00
74065;BME280;62421;51.412;5.432;2023-07-13T02:50:30;101336.88;;;13.23;100.00
74065;BME280;62421;51.412;5.432;2023-07-13T02:52:55;101343.31;;;13.20;100.00
74065;BME280;62421;51.412;5.432;2023-07-13T02:55:20;101346.16;;;13.19;100.00
74065;BME280;62421;51.412;5.432;2023-07-13T02:57:46;101336.22;;;13.19;100.00
74065;BME280;62421;51.412;5.432;2023-07-13T03:00:11;101344.41;;;13.18;100.00
74065;BME280;62421;51.412;5.432;2023-07-13T03:02:37;101343.66;;;13.16;100.00
74065;BME280;62421;51.412;5.432;2023-07-13T03:05:02;101343.75;;;13.14;100.00
74065;BME280;62421;51.412;5.432;2023-07-13T03:07:28;101347.34;;;13.15;100.00
74065;BME280;62421;51.412;5.432;2023-07-13T03:09:56;101347.44;;;13.13;100.00
74065;BME280;62421;51.412;5.432;2023-07-13T03:12:22;101345.84;;;13.10;100.00
74065;BME280;62421;51.412;5.432;2023-07-13T03:14:47;101350.47;;;13.08;100.00
74065;BME280;62421;51.412;5.432;2023-07-13T03:17:12;101350.59;;;13.07;100.00
74065;BME280;62421;51.412;5.432;2023-07-13T03:19:38;101346.03;;;13.07;100.00
74065;BME280;62421;51.412;5.432;2023-07-13T03:22:03;101358.56;;;13.08;100.00
74065;BME280;62421;51.412;5.432;2023-07-13T03:24:29;101346.19;;;13.06;100.00
74065;BME280;62421;51.412;5.432;2023-07-13T03:26:54;101356.06;;;13.05;100.00
74065;BME280;62421;51.412;5.432;2023-07-13T03:29:20;101358.78;;;13.05;100.00
74065;BME280;62421;51.412;5.432;2023-07-13T03:31:45;101362.34;;;13.06;100.00
74065;BME280;62421;51.412;5.432;2023-07-13T03:34:11;101366.09;;;13.03;100.00
74065;BME280;62421;51.412;5.432;2023-07-13T03:36:36;101374.34;;;13.02;100.00
74065;BME280;62421;51.412;5.432;2023-07-13T03:39:03;101367.34;;;12.99;100.00
74065;BME280;62421;51.412;5.432;2023-07-13T03:41:28;101372.81;;;12.98;100.00
74065;BME280;62421;51.412;5.432;2023-07-13T03:43:54;101379.31;;;12.95;100.00
74065;BME280;62421;51.412;5.432;2023-07-13T03:46:19;101370.97;;;12.98;100.00
74065;BME280;62421;51.412;5.432;2023-07-13T03:48:46;101377.22;;;12.99;100.00
74065;BME280;62421;51.412;5.432;2023-07-13T03:51:14;101373.34;;;13.03;100.00
74065;BME280;62421;51.412;5.432;2023-07-13T03:53:42;101377.78;;;13.04;100.00
74065;BME280;62421;51.412;5.432;2023-07-13T03:56:08;101379.38;;;13.06;100.00
74065;BME280;62421;51.412;5.432;2023-07-13T03:58:36;101368.59;;;13.06;100.00
74065;BME280;62421;51.412;5.432;2023-07-13T04:01:04;101372.25;;;13.05;100.00
74065;BME280;62421;51.412;5.432;2023-07-13T04:03:31;101382.84;;;13.08;100.00
74065;BME280;62421;51.412;5.432;2023-07-13T04:06:02;101393.53;;;13.10;100.00
74065;BME280;62421;51.412;5.432;2023-07-13T04:08:34;101396.84;;;13.14;100.00
74065;BME280;62421;51.412;5.432;2023-07-13T04:11:00;101391.25;;;13.17;100.00
74065;BME280;62421;51.412;5.432;2023-07-13T04:13:26;101392.28;;;13.27;100.00
74065;BME280;62421;51.412;5.432;2023-07-13T04:15:53;101395.97;;;13.39;100.00
74065;BME280;62421;51.412;5.432;2023-07-13T04:18:19;101397.00;;;13.49;100.00
74065;BME280;62421;51.412;5.432;2023-07-13T04:20:46;101395.56;;;13.56;100.00
74065;BME280;62421;51.412;5.432;2023-07-13T04:23:11;101403.13;;;13.64;100.00
74065;BME280;62421;51.412;5.432;2023-07-13T04:25:36;101394.31;;;13.73;100.00
74065;BME280;62421;51.412;5.432;2023-07-13T04:28:03;101405.06;;;13.86;100.00
74065;BME280;62421;51.412;5.432;2023-07-13T04:30:29;101399.72;;;13.97;100.00
74065;BME280;62421;51.412;5.432;2023-07-13T04:32:55;101396.31;;;14.06;100.00
74065;BME280;62421;51.412;5.432;2023-07-13T04:35:20;101404.69;;;14.14;100.00
74065;BME280;62421;51.412;5.432;2023-07-13T04:37:49;101404.13;;;14.22;100.00
74065;BME280;62421;51.412;5.432;2023-07-13T04:40:17;101413.34;;;14.31;100.00
74065;BME280;62421;51.412;5.432;2023-07-13T04:42:43;101412.53;;;14.42;100.00
74065;BME280;62421;51.412;5.432;2023-07-13T04:45:09;101408.13;;;14.52;100.00
74065;BME280;62421;51.412;5.432;2023-07-13T04:47:35;101415.44;;;14.63;100.00
74065;BME280;62421;51.412;5.432;2023-07-13T04:50:00;101408.44;;;14.71;100.00
74065;BME280;62421;51.412;5.432;2023-07-13T04:52:26;101411.38;;;14.80;100.00
74065;BME280;62421;51.412;5.432;2023-07-13T04:54:51;101417.03;;;14.88;100.00
74065;BME280;62421;51.412;5.432;2023-07-13T04:57:16;101413.63;;;14.97;100.00
74065;BME280;62421;51.412;5.432;2023-07-13T04:59:42;101412.88;;;15.06;100.00
74065;BME280;62421;51.412;5.432;2023-07-13T05:02:07;101421.25;;;15.14;100.00
74065;BME280;62421;51.412;5.432;2023-07-13T05:04:32;101415.31;;;15.21;100.00
74065;BME280;62421;51.412;5.432;2023-07-13T05:06:59;101427.50;;;15.26;100.00
74065;BME280;62421;51.412;5.432;2023-07-13T05:09:24;101424.06;;;15.35;100.00
74065;BME280;62421;51.412;5.432;2023-07-13T05:11:49;101431.06;;;15.49;100.00
74065;BME280;62421;51.412;5.432;2023-07-13T05:14:15;101429.56;;;15.56;100.00
74065;BME280;62421;51.412;5.432;2023-07-13T05:16:41;101434.22;;;15.66;100.00
74065;BME280;62421;51.412;5.432;2023-07-13T05:19:08;101434.63;;;15.72;100.00
74065;BME280;62421;51.412;5.432;2023-07-13T05:21:34;101435.22;;;15.76;100.00
74065;BME280;62421;51.412;5.432;2023-07-13T05:23:59;101441.88;;;15.83;100.00
74065;BME280;62421;51.412;5.432;2023-07-13T05:26:24;101442.78;;;15.93;100.00
74065;BME280;62421;51.412;5.432;2023-07-13T05:28:50;101435.00;;;16.00;100.00
74065;BME280;62421;51.412;5.432;2023-07-13T05:31:15;101433.66;;;16.06;100.00
74065;BME280;62421;51.412;5.432;2023-07-13T05:33:40;101443.38;;;16.08;100.00
74065;BME280;62421;51.412;5.432;2023-07-13T05:36:06;101443.75;;;16.04;100.00
74065;BME280;62421;51.412;5.432;2023-07-13T05:38:32;101444.41;;;15.96;100.00
74065;BME280;62421;51.412;5.432;2023-07-13T05:40:58;101452.66;;;15.94;100.00
74065;BME280;62421;51.412;5.432;2023-07-13T05:43:24;101446.38;;;15.94;100.00
74065;BME280;62421;51.412;5.432;2023-07-13T05:45:52;101456.34;;;15.93;100.00
74065;BME280;62421;51.412;5.432;2023-07-13T05:48:18;101450.41;;;16.00;100.00
74065;BME280;62421;51.412;5.432;2023-07-13T05:50:43;101461.47;;;16.08;100.00
74065;BME280;62421;51.412;5.432;2023-07-13T05:53:08;101459.22;;;16.13;100.00
74065;BME280;62421;51.412;5.432;2023-07-13T05:55:34;101452.56;;;16.17;100.00
74065;BME280;62421;51.412;5.432;2023-07-13T05:58:00;101458.31;;;16.24;100.00
74065;BME280;62421;51.412;5.432;2023-07-13T06:00:26;101467.41;;;16.34;100.00
74065;BME280;62421;51.412;5.432;2023-07-13T06:02:52;101462.13;;;16.53;100.00
74065;BME280;62421;51.412;5.432;2023-07-13T06:05:17;101463.91;;;16.64;100.00
74065;BME280;62421;51.412;5.432;2023-07-13T06:07:43;101459.44;;;16.74;100.00
74065;BME280;62421;51.412;5.432;2023-07-13T06:10:09;101462.75;;;16.78;100.00
74065;BME280;62421;51.412;5.432;2023-07-13T06:12:34;101468.94;;;16.80;100.00
74065;BME280;62421;51.412;5.432;2023-07-13T06:14:59;101478.88;;;16.79;100.00
74065;BME280;62421;51.412;5.432;2023-07-13T06:17:25;101475.94;;;16.83;100.00
74065;BME280;62421;51.412;5.432;2023-07-13T06:19:50;101477.13;;;16.90;100.00
74065;BME280;62421;51.412;5.432;2023-07-13T06:22:16;101477.00;;;16.91;100.00
74065;BME280;62421;51.412;5.432;2023-07-13T06:24:41;101473.03;;;16.95;100.00
74065;BME280;62421;51.412;5.432;2023-07-13T06:27:06;101483.19;;;17.03;100.00
74065;BME280;62421;51.412;5.432;2023-07-13T06:29:32;101471.53;;;17.12;100.00
74065;BME280;62421;51.412;5.432;2023-07-13T06:31:59;101476.56;;;17.17;100.00
74065;BME280;62421;51.412;5.432;2023-07-13T06:34:24;101480.44;;;17.24;99.58
74065;BME280;62421;51.412;5.432;2023-07-13T06:36:49;101489.91;;;17.30;99.93
74065;BME280;62421;51.412;5.432;2023-07-13T06:39:15;101494.50;;;17.39;99.20
74065;BME280;62421;51.412;5.432;2023-07-13T06:41:40;101498.69;;;17.43;98.40
74065;BME280;62421;51.412;5.432;2023-07-13T06:44:05;101495.84;;;17.45;98.67
74065;BME280;62421;51.412;5.432;2023-07-13T06:46:31;101497.94;;;17.41;97.70
74065;BME280;62421;51.412;5.432;2023-07-13T06:48:57;101490.94;;;17.38;97.69
74065;BME280;62421;51.412;5.432;2023-07-13T06:51:22;101500.94;;;17.38;98.69
74065;BME280;62421;51.412;5.432;2023-07-13T06:53:48;101501.28;;;17.45;97.14
74065;BME280;62421;51.412;5.432;2023-07-13T06:56:14;101500.31;;;17.55;97.50
74065;BME280;62421;51.412;5.432;2023-07-13T06:58:40;101503.50;;;17.70;96.88
74065;BME280;62421;51.412;5.432;2023-07-13T07:01:05;101505.72;;;17.86;96.74
74065;BME280;62421;51.412;5.432;2023-07-13T07:03:30;101513.31;;;17.92;95.47
74065;BME280;62421;51.412;5.432;2023-07-13T07:06:09;101500.75;;;18.01;95.15
74065;BME280;62421;51.412;5.432;2023-07-13T07:08:36;101499.59;;;18.04;94.99
74065;BME280;62421;51.412;5.432;2023-07-13T07:11:02;101504.34;;;18.11;94.15
74065;BME280;62421;51.412;5.432;2023-07-13T07:13:27;101504.91;;;18.15;93.48
74065;BME280;62421;51.412;5.432;2023-07-13T07:15:53;101512.78;;;18.18;93.35
74065;BME280;62421;51.412;5.432;2023-07-13T07:18:19;101514.50;;;18.19;92.09
74065;BME280;62421;51.412;5.432;2023-07-13T07:20:44;101521.25;;;18.25;92.52
74065;BME280;62421;51.412;5.432;2023-07-13T07:23:09;101505.63;;;18.36;92.37
74065;BME280;62421;51.412;5.432;2023-07-13T07:25:35;101512.25;;;18.44;90.96
74065;BME280;62421;51.412;5.432;2023-07-13T07:28:02;101514.53;;;18.48;91.23
74065;BME280;62421;51.412;5.432;2023-07-13T07:30:28;101504.66;;;18.57;91.93
74065;BME280;62421;51.412;5.432;2023-07-13T07:32:53;101515.09;;;18.61;90.23
74065;BME280;62421;51.412;5.432;2023-07-13T07:35:18;101512.34;;;18.71;90.95
74065;BME280;62421;51.412;5.432;2023-07-13T07:37:44;101512.41;;;18.81;89.59
74065;BME280;62421;51.412;5.432;2023-07-13T07:40:09;101515.97;;;18.81;89.66
74065;BME280;62421;51.412;5.432;2023-07-13T07:42:34;101513.13;;;18.83;89.63
74065;BME280;62421;51.412;5.432;2023-07-13T07:45:00;101513.81;;;18.85;90.43
74065;BME280;62421;51.412;5.432;2023-07-13T07:47:26;101507.22;;;18.88;89.74
74065;BME280;62421;51.412;5.432;2023-07-13T07:49:51;101515.81;;;18.93;90.02
74065;BME280;62421;51.412;5.432;2023-07-13T07:52:17;101517.66;;;18.92;90.74
74065;BME280;62421;51.412;5.432;2023-07-13T07:54:43;101516.25;;;18.88;88.86
74065;BME280;62421;51.412;5.432;2023-07-13T07:57:08;101522.13;;;18.93;89.05
74065;BME280;62421;51.412;5.432;2023-07-13T07:59:36;101526.50;;;19.14;89.17
74065;BME280;62421;51.412;5.432;2023-07-13T08:02:02;101522.41;;;19.47;87.51
74065;BME280;62421;51.412;5.432;2023-07-13T08:04:28;101533.44;;;19.83;85.66
74065;BME280;62421;51.412;5.432;2023-07-13T08:06:53;101517.25;;;20.27;82.88
74065;BME280;62421;51.412;5.432;2023-07-13T08:09:18;101527.00;;;20.48;80.26
74065;BME280;62421;51.412;5.432;2023-07-13T08:11:44;101520.59;;;20.39;80.01
74065;BME280;62421;51.412;5.432;2023-07-13T08:14:09;101509.63;;;20.31;79.57
74065;BME280;62421;51.412;5.432;2023-07-13T08:16:34;101509.88;;;20.37;78.35
74065;BME280;62421;51.412;5.432;2023-07-13T08:19:00;101517.56;;;20.42;79.97
74065;BME280;62421;51.412;5.432;2023-07-13T08:21:25;101522.09;;;20.33;79.95
74065;BME280;62421;51.412;5.432;2023-07-13T08:23:51;101513.75;;;20.35;79.51
74065;BME280;62421;51.412;5.432;2023-07-13T08:26:16;101524.81;;;20.51;78.90
74065;BME280;62421;51.412;5.432;2023-07-13T08:28:41;101519.47;;;20.59;77.81
74065;BME280;62421;51.412;5.432;2023-07-13T08:31:07;101529.22;;;20.62;76.66
74065;BME280;62421;51.412;5.432;2023-07-13T08:33:35;101524.09;;;20.59;74.89
74065;BME280;62421;51.412;5.432;2023-07-13T08:36:01;101527.81;;;20.58;74.76
74065;BME280;62421;51.412;5.432;2023-07-13T08:38:26;101521.50;;;20.57;75.61
74065;BME280;62421;51.412;5.432;2023-07-13T08:40:56;101522.19;;;20.59;78.19
74065;BME280;62421;51.412;5.432;2023-07-13T08:43:30;101533.97;;;20.60;76.56
74065;BME280;62421;51.412;5.432;2023-07-13T08:46:17;101525.53;;;20.53;74.25
74065;BME280;62421;51.412;5.432;2023-07-13T08:48:47;101518.75;;;20.39;75.81
74065;BME280;62421;51.412;5.432;2023-07-13T08:51:27;101527.47;;;20.25;78.40
74065;BME280;62421;51.412;5.432;2023-07-13T08:53:57;101524.78;;;20.15;78.67
74065;BME280;62421;51.412;5.432;2023-07-13T08:56:27;101529.25;;;20.16;76.90
74065;BME280;62421;51.412;5.432;2023-07-13T08:58:56;101525.28;;;20.29;77.01
74065;BME280;62421;51.412;5.432;2023-07-13T09:04:05;101519.84;;;20.46;75.89
74065;BME280;62421;51.412;5.432;2023-07-13T09:06:40;101528.22;;;20.63;73.79
74065;BME280;62421;51.412;5.432;2023-07-13T09:09:17;101522.91;;;20.61;74.14
74065;BME280;62421;51.412;5.432;2023-07-13T09:11:59;101512.50;;;20.47;75.10
74065;BME280;62421;51.412;5.432;2023-07-13T09:14:47;101518.09;;;20.28;75.10
74065;BME280;62421;51.412;5.432;2023-07-13T09:17:25;101515.72;;;20.24;75.09
74065;BME280;62421;51.412;5.432;2023-07-13T09:20:09;101514.38;;;20.46;76.34
74065;BME280;62421;51.412;5.432;2023-07-13T09:22:37;101518.81;;;20.83;71.14
74065;BME280;62421;51.412;5.432;2023-07-13T09:25:21;101512.75;;;21.16;72.70
74065;BME280;62421;51.412;5.432;2023-07-13T09:27:49;101513.00;;;21.57;70.14
74065;BME280;62421;51.412;5.432;2023-07-13T09:33:13;101514.03;;;21.56;66.89
74065;BME280;62421;51.412;5.432;2023-07-13T09:35:39;101512.50;;;21.61;68.53
74065;BME280;62421;51.412;5.432;2023-07-13T09:38:12;101509.19;;;21.84;69.61
74065;BME280;62421;51.412;5.432;2023-07-13T09:43:11;101511.78;;;21.94;67.41
74065;BME280;62421;51.412;5.432;2023-07-13T09:45:38;101516.47;;;22.09;66.27
74065;BME280;62421;51.412;5.432;2023-07-13T09:48:12;101512.00;;;22.08;66.93
74065;BME280;62421;51.412;5.432;2023-07-13T09:50:42;101514.00;;;21.90;67.22
74065;BME280;62421;51.412;5.432;2023-07-13T09:53:15;101518.72;;;21.72;68.41
74065;BME280;62421;51.412;5.432;2023-07-13T09:55:43;101510.75;;;21.52;66.34
74065;BME280;62421;51.412;5.432;2023-07-13T09:58:30;101523.97;;;21.39;70.69
74065;BME280;62421;51.412;5.432;2023-07-13T10:01:02;101516.78;;;21.30;70.63
74065;BME280;62421;51.412;5.432;2023-07-13T10:03:33;101513.97;;;21.21;71.86
74065;BME280;62421;51.412;5.432;2023-07-13T10:06:14;101521.16;;;21.22;72.69
74065;BME280;62421;51.412;5.432;2023-07-13T10:08:40;101516.91;;;21.28;71.62
74065;BME280;62421;51.412;5.432;2023-07-13T10:13:40;101520.00;;;21.51;69.98
74065;BME280;62421;51.412;5.432;2023-07-13T10:16:07;101518.06;;;21.78;69.36
74065;BME280;62421;51.412;5.432;2023-07-13T10:18:43;101527.22;;;22.03;69.85
74065;BME280;62421;51.412;5.432;2023-07-13T10:21:18;101521.94;;;22.09;67.11
74065;BME280;62421;51.412;5.432;2023-07-13T10:23:48;101528.81;;;22.30;66.82
74065;BME280;62421;51.412;5.432;2023-07-13T10:26:21;101528.34;;;22.51;64.57
74065;BME280;62421;51.412;5.432;2023-07-13T10:28:52;101528.38;;;22.59;63.65
74065;BME280;62421;51.412;5.432;2023-07-13T10:31:21;101534.53;;;22.69;63.30
74065;BME280;62421;51.412;5.432;2023-07-13T10:33:48;101533.19;;;22.74;61.89
74065;BME280;62421;51.412;5.432;2023-07-13T10:36:16;101521.88;;;22.85;63.15
74065;BME280;62421;51.412;5.432;2023-07-13T10:38:43;101517.06;;;23.12;62.76
74065;BME280;62421;51.412;5.432;2023-07-13T10:41:15;101527.81;;;23.29;60.71
74065;BME280;62421;51.412;5.432;2023-07-13T10:43:45;101518.75;;;23.29;59.49
74065;BME280;62421;51.412;5.432;2023-07-13T10:46:14;101523.91;;;23.16;56.40
74065;BME280;62421;51.412;5.432;2023-07-13T10:48:42;101526.66;;;22.91;58.27
74065;BME280;62421;51.412;5.432;2023-07-13T10:51:10;101538.28;;;22.77;62.54
74065;BME280;62421;51.412;5.432;2023-07-13T10:53:38;101545.66;;;22.76;62.35
74065;BME280;62421;51.412;5.432;2023-07-13T10:58:42;101541.34;;;23.23;61.58
74065;BME280;62421;51.412;5.432;2023-07-13T11:01:18;101530.69;;;23.44;62.22
74065;BME280;62421;51.412;5.432;2023-07-13T11:06:29;101533.00;;;23.72;59.64
74065;BME280;62421;51.412;5.432;2023-07-13T11:09:17;101528.72;;;23.69;59.15
74065;BME280;62421;51.412;5.432;2023-07-13T11:11:43;101531.88;;;23.58;58.29
74065;BME280;62421;51.412;5.432;2023-07-13T11:15:00;101531.91;;;23.34;58.31
74065;BME280;62421;51.412;5.432;2023-07-13T11:17:54;101538.47;;;22.83;60.92
74065;BME280;62421;51.412;5.432;2023-07-13T11:20:37;101542.03;;;22.51;59.48
74065;BME280;62421;51.412;5.432;2023-07-13T11:25:38;101542.53;;;22.38;60.54
74065;BME280;62421;51.412;5.432;2023-07-13T11:33:20;101530.41;;;22.98;57.87
74065;BME280;62421;51.412;5.432;2023-07-13T11:38:32;101519.47;;;23.79;55.05
74065;BME280;62421;51.412;5.432;2023-07-13T11:41:02;101529.25;;;23.81;56.04
74065;BME280;62421;51.412;5.432;2023-07-13T11:43:29;101518.59;;;23.86;56.20
74065;BME280;62421;51.412;5.432;2023-07-13T11:45:55;101509.31;;;24.19;58.39
74065;BME280;62421;51.412;5.432;2023-07-13T11:48:27;101528.00;;;24.55;53.83
74065;BME280;62421;51.412;5.432;2023-07-13T11:51:02;101517.19;;;24.76;51.61
74065;BME280;62421;51.412;5.432;2023-07-13T11:53:37;101521.28;;;24.95;52.02
74065;BME280;62421;51.412;5.432;2023-07-13T11:56:03;101521.34;;;25.25;51.80
74065;BME280;62421;51.412;5.432;2023-07-13T11:58:30;101523.94;;;25.41;48.87
74065;BME280;62421;51.412;5.432;2023-07-13T12:00:58;101519.84;;;25.82;49.72
74065;BME280;62421;51.412;5.432;2023-07-13T12:03:24;101533.88;;;26.02;47.21
74065;BME280;62421;51.412;5.432;2023-07-13T12:06:01;101533.50;;;26.26;49.01
74065;BME280;62421;51.412;5.432;2023-07-13T12:08:28;101522.94;;;26.08;44.95
74065;BME280;62421;51.412;5.432;2023-07-13T12:11:03;101528.28;;;25.95;45.93
74065;BME280;62421;51.412;5.432;2023-07-13T12:13:35;101532.53;;;25.83;45.69
74065;BME280;62421;51.412;5.432;2023-07-13T12:16:01;101536.63;;;25.72;45.24
74065;BME280;62421;51.412;5.432;2023-07-13T12:18:30;101534.19;;;25.62;45.68
74065;BME280;62421;51.412;5.432;2023-07-13T12:20:58;101536.47;;;25.59;45.38
74065;BME280;62421;51.412;5.432;2023-07-13T12:25:52;101536.53;;;25.65;43.86
74065;BME280;62421;51.412;5.432;2023-07-13T12:28:30;101546.31;;;25.68;45.13
74065;BME280;62421;51.412;5.432;2023-07-13T12:31:08;101543.94;;;25.50;45.01
74065;BME280;62421;51.412;5.432;2023-07-13T12:33:40;101541.19;;;25.35;44.89
74065;BME280;62421;51.412;5.432;2023-07-13T12:36:06;101542.09;;;25.27;45.41
74065;BME280;62421;51.412;5.432;2023-07-13T12:38:32;101544.59;;;25.37;45.63
74065;BME280;62421;51.412;5.432;2023-07-13T12:40:58;101545.34;;;25.46;46.21
74065;BME280;62421;51.412;5.432;2023-07-13T12:43:24;101554.81;;;25.28;46.26
74065;BME280;62421;51.412;5.432;2023-07-13T12:46:14;101548.78;;;25.10;49.07
74065;BME280;62421;51.412;5.432;2023-07-13T12:48:42;101562.38;;;24.88;46.71
74065;BME280;62421;51.412;5.432;2023-07-13T12:51:12;101558.97;;;24.63;48.64
74065;BME280;62421;51.412;5.432;2023-07-13T12:53:43;101558.53;;;24.20;50.36
74065;BME280;62421;51.412;5.432;2023-07-13T12:56:22;101571.56;;;23.79;50.79
74065;BME280;62421;51.412;5.432;2023-07-13T12:58:49;101569.06;;;23.44;52.62
74065;BME280;62421;51.412;5.432;2023-07-13T13:01:21;101569.81;;;23.22;53.46
74065;BME280;62421;51.412;5.432;2023-07-13T13:03:50;101578.22;;;23.04;55.79
74065;BME280;62421;51.412;5.432;2023-07-13T13:08:46;101592.03;;;22.69;59.56
74065;BME280;62421;51.412;5.432;2023-07-13T13:11:11;101587.34;;;22.37;62.93
74065;BME280;62421;51.412;5.432;2023-07-13T13:13:37;101589.16;;;21.86;70.63
74065;BME280;62421;51.412;5.432;2023-07-13T13:16:11;101592.06;;;21.32;73.47
74065;BME280;62421;51.412;5.432;2023-07-13T13:18:37;101589.19;;;21.16;72.86
74065;BME280;62421;51.412;5.432;2023-07-13T13:21:02;101595.22;;;21.19;74.40
74065;BME280;62421;51.412;5.432;2023-07-13T13:23:28;101601.59;;;21.28;73.07